Time;durP1;ratioP1;P1;durP2;ratioP2;P2;SDS_P1;SDS_P2;PMS_P1;PMS_P2;Temp;Humidity;BMP_temperature;BMP_pressure;BME280_temperature;BME280_humidity;BME280_pressure;Samples;Min_cycle;Max_cycle;Signal;HPM_P1;HPM_P2
2022/10/04 00:02:38;;;;;;;21.55;7.53;;;12.50;99.90;;;;;;4859819;29;20053;-66
2022/10/04 00:05:13;;;;;;;19.13;6.07;;;12.50;99.90;;;;;;4855247;29;20480;-65
2022/10/04 00:07:59;;;;;;;20.75;6.45;;;12.50;99.90;;;;;;4853127;29;20130;-64
2022/10/04 00:10:30;;;;;;;20.90;6.20;;;12.50;99.90;;;;;;4858231;29;20416;-65
2022/10/04 00:12:59;;;;;;;19.65;6.70;;;12.50;99.90;;;;;;4872672;29;20064;-65
2022/10/04 00:15:32;;;;;;;17.40;5.95;;;12.50;99.90;;;;;;4858866;29;20483;-66
2022/10/04 00:18:23;;;;;;;28.25;5.60;;;12.60;99.90;;;;;;4863316;29;20403;-65
2022/10/04 00:20:49;;;;;;;28.17;6.28;;;12.40;99.90;;;;;;4848806;29;21037;-65
2022/10/04 00:23:24;;;;;;;27.10;6.90;;;12.70;99.90;;;;;;4855068;29;20050;-66
2022/10/04 00:25:57;;;;;;;18.80;5.72;;;12.50;99.90;;;;;;4850014;29;20053;-65
2022/10/04 00:28:23;;;;;;;25.38;6.50;;;12.40;99.90;;;;;;4859613;29;20065;-65
2022/10/04 00:31:09;;;;;;;21.05;6.70;;;12.40;99.90;;;;;;4858930;29;20045;-64
2022/10/04 00:33:38;;;;;;;18.98;6.15;;;12.40;99.90;;;;;;4859421;29;20049;-65
2022/10/04 00:36:25;;;;;;;21.48;6.00;;;12.40;99.90;;;;;;4857757;29;20045;-65
2022/10/04 00:39:02;;;;;;;18.95;6.00;;;12.40;99.90;;;;;;4841186;29;20413;-65
2022/10/04 00:41:36;;;;;;;14.55;5.65;;;12.50;99.90;;;;;;4856565;29;20053;-65
2022/10/04 00:44:07;;;;;;;21.55;5.60;;;12.40;99.90;;;;;;4846696;29;20058;-65
2022/10/04 00:46:35;;;;;;;21.33;6.70;;;12.40;99.90;;;;;;4854424;29;20042;-65
2022/10/04 00:49:05;;;;;;;17.30;6.50;;;12.40;99.90;;;;;;4858399;29;20054;-65
2022/10/04 00:51:43;;;;;;;17.75;6.10;;;12.40;99.90;;;;;;4863711;29;20045;-65
2022/10/04 00:54:18;;;;;;;18.90;6.50;;;12.40;99.90;;;;;;4873002;29;20098;-65
2022/10/04 00:56:57;;;;;;;14.00;5.88;;;12.40;99.90;;;;;;4866069;29;20056;-64
2022/10/04 00:59:39;;;;;;;19.45;6.28;;;12.40;99.90;;;;;;4864515;29;20384;-65
2022/10/04 01:02:27;;;;;;;23.63;6.93;;;12.30;99.90;;;;;;4867584;29;20093;-65
2022/10/04 01:05:12;;;;;;;27.33;7.70;;;12.40;99.90;;;;;;4859816;29;20129;-65
2022/10/04 01:08:02;;;;;;;25.83;6.45;;;12.30;99.90;;;;;;4860650;29;20053;-65
2022/10/04 01:10:35;;;;;;;22.83;6.63;;;12.30;99.90;;;;;;4871908;29;20163;-65
2022/10/04 01:13:24;;;;;;;20.70;6.25;;;12.30;99.90;;;;;;4862701;29;20056;-65
2022/10/04 01:15:56;;;;;;;18.27;6.93;;;12.30;99.90;;;;;;4839340;29;20042;-66
2022/10/04 01:18:22;;;;;;;21.63;7.03;;;12.30;99.90;;;;;;4856654;29;20097;-64
2022/10/04 01:21:06;;;;;;;16.65;7.45;;;12.30;99.90;;;;;;4856435;29;20148;-64
2022/10/04 01:23:37;;;;;;;22.42;7.45;;;12.30;99.90;;;;;;4860899;29;20059;-65
2022/10/04 01:26:29;;;;;;;19.80;7.85;;;12.30;99.90;;;;;;4859930;29;20374;-64
2022/10/04 01:29:37;;;;;;;22.48;7.53;;;12.40;99.90;;;;;;4859628;29;20068;-65
2022/10/04 01:32:03;;;;;;;27.90;7.55;;;12.30;99.90;;;;;;4856618;29;20053;-66
2022/10/04 01:37:00;;;;;;;29.15;7.80;;;12.30;99.90;;;;;;4935300;23;20824;-69
2022/10/04 01:39:27;;;;;;;19.13;7.82;;;12.30;99.90;;;;;;4859220;29;20057;-69
2022/10/04 01:42:03;;;;;;;21.67;8.73;;;12.30;99.90;;;;;;4858795;29;20336;-68
2022/10/04 01:44:49;;;;;;;21.48;8.13;;;12.30;99.90;;;;;;4872119;29;20053;-68
2022/10/04 01:47:22;;;;;;;24.73;7.43;;;12.30;99.90;;;;;;4858500;29;20090;-70
2022/10/04 01:49:51;;;;;;;25.20;8.35;;;12.30;99.90;;;;;;4874971;29;20088;-70
2022/10/04 01:52:29;;;;;;;19.30;7.43;;;12.30;99.90;;;;;;4873648;29;20054;-68
2022/10/04 01:55:13;;;;;;;22.38;8.40;;;12.30;99.90;;;;;;4854085;29;20053;-67
2022/10/04 01:57:47;;;;;;;21.45;8.20;;;12.30;99.90;;;;;;4874920;29;20049;-68
2022/10/04 02:00:14;;;;;;;26.35;9.35;;;12.30;99.90;;;;;;4870703;29;20057;-67
2022/10/04 02:02:54;;;;;;;21.13;8.45;;;12.30;99.90;;;;;;4858563;29;20052;-68
2022/10/04 02:05:30;;;;;;;20.00;8.52;;;12.30;99.90;;;;;;4857279;29;20029;-67
2022/10/04 02:08:00;;;;;;;23.25;9.07;;;12.30;99.90;;;;;;4868505;29;20082;-67
2022/10/04 02:10:26;;;;;;;24.45;9.27;;;12.20;99.90;;;;;;4875233;29;20053;-67
2022/10/04 02:12:53;;;;;;;23.25;8.60;;;12.20;99.90;;;;;;4859746;29;20053;-67
2022/10/04 02:15:21;;;;;;;21.85;8.57;;;12.20;99.90;;;;;;4877451;29;20052;-67
2022/10/04 02:17:48;;;;;;;16.98;8.07;;;12.20;99.90;;;;;;4871225;29;20056;-68
2022/10/04 02:20:26;;;;;;;24.25;8.77;;;12.20;99.90;;;;;;4872437;29;20391;-67
2022/10/04 02:22:58;;;;;;;28.38;8.90;;;12.20;99.90;;;;;;4858622;29;20061;-67
2022/10/04 02:25:25;;;;;;;21.88;8.90;;;12.20;99.90;;;;;;4868967;29;20081;-68
2022/10/04 02:27:55;;;;;;;21.80;8.27;;;12.10;99.90;;;;;;4874007;29;20138;-67
2022/10/04 02:30:22;;;;;;;26.90;9.32;;;12.10;99.90;;;;;;4873619;29;20125;-67
2022/10/04 02:32:59;;;;;;;20.27;8.43;;;12.10;99.90;;;;;;4876002;29;20038;-66
2022/10/04 02:35:46;;;;;;;19.80;8.27;;;12.10;99.90;;;;;;4856039;29;20089;-68
2022/10/04 02:38:11;;;;;;;23.73;9.15;;;12.00;99.90;;;;;;4842022;29;20053;-69
2022/10/04 02:40:45;;;;;;;25.13;9.35;;;12.10;99.90;;;;;;4841311;29;20576;-69
2022/10/04 02:43:47;;;;;;;20.83;9.15;;;12.00;99.90;;;;;;4849767;29;20508;-68
2022/10/04 02:46:26;;;;;;;24.00;9.02;;;12.00;99.90;;;;;;4825723;29;20077;-68
2022/10/04 02:49:19;;;;;;;18.75;9.50;;;12.00;99.90;;;;;;4841078;29;20497;-68
2022/10/04 02:52:09;;;;;;;27.45;9.20;;;12.00;99.90;;;;;;4830542;29;20061;-69
2022/10/04 02:54:38;;;;;;;26.00;8.88;;;12.00;99.90;;;;;;4854625;29;20057;-69
2022/10/04 02:57:04;;;;;;;26.63;8.60;;;12.00;99.90;;;;;;4849757;29;20098;-68
2022/10/04 02:59:31;;;;;;;20.98;9.07;;;12.00;99.90;;;;;;4822969;29;20061;-68
2022/10/04 03:01:59;;;;;;;20.80;8.98;;;12.00;99.90;;;;;;4845460;29;20512;-68
2022/10/04 03:04:29;;;;;;;21.92;8.77;;;11.90;99.90;;;;;;4833715;29;20145;-69
2022/10/04 03:06:58;;;;;;;16.48;8.35;;;12.00;99.90;;;;;;4852219;29;20106;-66
2022/10/04 03:09:25;;;;;;;20.13;8.80;;;12.00;99.90;;;;;;4847744;29;20085;-67
2022/10/04 03:11:51;;;;;;;20.77;8.70;;;12.00;99.90;;;;;;4834198;29;20050;-68
2022/10/04 03:14:26;;;;;;;31.17;8.43;;;12.00;99.90;;;;;;4831239;29;20056;-67
2022/10/04 03:16:55;;;;;;;19.10;8.38;;;12.00;99.90;;;;;;4849307;29;20045;-68
2022/10/04 03:19:25;;;;;;;15.00;8.60;;;11.90;99.90;;;;;;4833156;29;20071;-68
2022/10/04 03:21:54;;;;;;;16.08;8.50;;;11.90;99.90;;;;;;4839281;29;20042;-67
2022/10/04 03:24:29;;;;;;;23.60;8.75;;;11.90;99.90;;;;;;4835853;29;20058;-70
2022/10/04 03:26:57;;;;;;;20.05;8.68;;;11.90;99.90;;;;;;4832496;29;20061;-68
2022/10/04 03:29:26;;;;;;;23.95;7.93;;;11.90;99.90;;;;;;4839322;29;20402;-67
2022/10/04 03:31:57;;;;;;;20.70;9.15;;;11.90;99.90;;;;;;4851862;29;20045;-68
2022/10/04 03:34:34;;;;;;;28.83;7.82;;;11.90;99.90;;;;;;4851291;29;20101;-67
2022/10/04 03:37:01;;;;;;;26.15;8.40;;;11.90;99.90;;;;;;4826112;29;20058;-68
2022/10/04 03:39:37;;;;;;;25.63;8.82;;;11.80;99.90;;;;;;4848674;29;20053;-70
2022/10/04 03:42:16;;;;;;;19.60;8.90;;;11.80;99.90;;;;;;4850395;29;20054;-67
2022/10/04 03:44:44;;;;;;;23.30;8.85;;;11.80;99.90;;;;;;4824997;29;20141;-67
2022/10/04 03:47:11;;;;;;;;;;;11.80;99.90;;;;;;4852679;29;20266;-70
2022/10/04 03:49:37;;;;;;;15.88;8.40;;;11.70;99.90;;;;;;4835677;29;19931;-67
2022/10/04 03:52:03;;;;;;;22.40;9.38;;;11.80;99.90;;;;;;4849633;29;20136;-68
2022/10/04 03:54:30;;;;;;;19.27;8.63;;;11.70;99.90;;;;;;4853382;29;20030;-67
2022/10/04 03:56:58;;;;;;;26.58;9.35;;;11.80;99.90;;;;;;4857157;29;20050;-66
2022/10/04 03:59:26;;;;;;;27.45;9.43;;;11.70;99.90;;;;;;4855508;29;20081;-68
2022/10/04 04:02:16;;;;;;;17.23;8.13;;;11.70;99.90;;;;;;4843414;29;20051;-68
2022/10/04 04:04:47;;;;;;;20.17;8.85;;;11.70;99.90;;;;;;4832259;29;20045;-68
2022/10/04 04:07:24;;;;;;;25.55;8.90;;;11.80;99.90;;;;;;4823377;29;20508;-67
2022/10/04 04:10:32;;;;;;;24.95;9.23;;;11.90;99.90;;;;;;4837707;29;20089;-68
2022/10/04 04:13:06;;;;;;;27.45;9.45;;;11.70;99.90;;;;;;4846628;29;20042;-68
2022/10/04 04:15:33;;;;;;;22.40;8.80;;;11.70;99.90;;;;;;4828305;29;20054;-68
2022/10/04 04:18:06;;;;;;;20.38;9.23;;;11.80;99.90;;;;;;4842043;29;20050;-67
2022/10/04 04:20:37;;;;;;;17.88;9.00;;;11.70;99.90;;;;;;4826649;29;20560;-66
2022/10/04 04:23:14;;;;;;;26.73;8.95;;;11.70;99.90;;;;;;4840282;29;20106;-67
2022/10/04 04:25:47;;;;;;;28.58;8.98;;;11.70;99.90;;;;;;4847616;29;20053;-69
2022/10/04 04:28:20;;;;;;;25.75;8.82;;;11.80;99.90;;;;;;4850158;29;20471;-69
2022/10/04 04:30:48;;;;;;;23.10;9.85;;;11.70;99.90;;;;;;4852519;29;20154;-68
2022/10/04 04:33:24;;;;;;;23.35;9.55;;;11.70;99.90;;;;;;4841896;29;20083;-68
2022/10/04 04:35:54;;;;;;;23.08;9.82;;;11.60;99.90;;;;;;4817248;29;20125;-68
2022/10/04 04:38:22;;;;;;;21.15;10.05;;;11.60;99.90;;;;;;4837793;29;20068;-70
2022/10/04 04:40:49;;;;;;;28.90;10.55;;;11.60;99.90;;;;;;4849414;29;20717;-66
2022/10/04 04:43:19;;;;;;;24.92;9.93;;;11.60;99.90;;;;;;4850310;29;20046;-68
2022/10/04 04:45:48;;;;;;;23.55;9.98;;;11.60;99.90;;;;;;4855678;29;20098;-68
2022/10/04 04:48:16;;;;;;;33.63;9.75;;;11.50;99.90;;;;;;4855219;29;20093;-69
2022/10/04 04:50:47;;;;;;;22.15;10.80;;;11.50;99.90;;;;;;4855464;29;20057;-70
2022/10/04 04:53:22;;;;;;;19.83;9.27;;;11.50;99.90;;;;;;4831361;29;20050;-66
2022/10/04 04:55:54;;;;;;;31.08;10.02;;;11.50;99.90;;;;;;4854601;29;20030;-65
2022/10/04 04:58:42;;;;;;;23.75;9.77;;;11.50;99.90;;;;;;4845040;29;20046;-67
2022/10/04 05:01:23;;;;;;;28.33;10.13;;;11.50;99.90;;;;;;4845607;29;20553;-67
2022/10/04 05:04:07;;;;;;;20.60;9.55;;;11.50;99.90;;;;;;4828270;29;20298;-68
2022/10/04 05:09:27;;;;;;;21.98;9.90;;;11.40;99.90;;;;;;4997584;23;20407;-66
2022/10/04 05:12:02;;;;;;;25.80;11.02;;;11.30;99.90;;;;;;4818947;29;20046;-64
2022/10/04 05:14:31;;;;;;;28.47;10.27;;;11.40;99.90;;;;;;4837391;29;20061;-66
2022/10/04 05:16:57;;;;;;;20.98;10.52;;;11.40;99.90;;;;;;4823995;29;20283;-66
2022/10/04 05:19:35;;;;;;;25.15;9.88;;;11.40;99.90;;;;;;4840283;29;20062;-66
2022/10/04 05:22:09;;;;;;;24.73;10.45;;;11.30;99.90;;;;;;4837381;29;20054;-67
2022/10/04 05:24:44;;;;;;;25.15;10.85;;;11.30;99.90;;;;;;4839328;29;20137;-67
2022/10/04 05:27:35;;;;;;;21.77;10.77;;;11.30;99.90;;;;;;4827931;29;20167;-68
2022/10/04 05:30:26;;;;;;;24.30;11.18;;;11.20;99.90;;;;;;4832572;29;20054;-68
2022/10/04 05:33:03;;;;;;;23.98;11.60;;;11.20;99.90;;;;;;4833108;29;20052;-66
2022/10/04 05:35:41;;;;;;;25.75;12.15;;;11.20;99.90;;;;;;4839532;29;20053;-68
2022/10/04 05:38:22;;;;;;;22.08;12.48;;;11.20;99.90;;;;;;4842382;29;20050;-67
2022/10/04 05:41:44;;;;;;;28.85;12.60;;;11.10;99.90;;;;;;4841844;29;20552;-66
2022/10/04 05:44:21;;;;;;;24.80;12.02;;;11.10;99.90;;;;;;4800619;29;20114;-67
2022/10/04 05:46:48;;;;;;;27.00;12.82;;;11.10;99.90;;;;;;4826345;29;20045;-65
2022/10/04 05:49:16;;;;;;;25.83;13.50;;;11.10;99.90;;;;;;4841089;29;20567;-66
2022/10/04 05:52:00;;;;;;;26.40;13.82;;;11.10;99.90;;;;;;4829763;29;20096;-66
2022/10/04 05:54:31;;;;;;;20.67;12.38;;;11.10;99.90;;;;;;4839153;29;20056;-65
2022/10/04 05:57:22;;;;;;;24.23;13.45;;;11.00;99.90;;;;;;4842711;29;20065;-67
2022/10/04 06:00:17;;;;;;;25.02;13.50;;;11.00;99.90;;;;;;4844160;29;20065;-67
2022/10/04 06:03:33;;;;;;;32.95;14.18;;;11.00;99.90;;;;;;4813086;29;20046;-65
2022/10/04 06:06:05;;;;;;;28.13;13.23;;;11.00;99.90;;;;;;4833728;29;20037;-65
2022/10/04 06:09:08;;;;;;;24.95;13.73;;;11.00;99.90;;;;;;4840102;29;20400;-66
2022/10/04 06:11:39;;;;;;;23.30;13.10;;;11.00;99.90;;;;;;4823532;29;20118;-66
2022/10/04 06:14:20;;;;;;;26.05;13.32;;;11.00;99.90;;;;;;4837154;29;20045;-67
2022/10/04 06:17:12;;;;;;;31.58;13.25;;;11.00;99.90;;;;;;4820543;29;20115;-66
2022/10/04 06:20:05;;;;;;;27.33;13.73;;;11.00;99.90;;;;;;4833659;29;20439;-66
2022/10/04 06:22:32;;;;;;;28.92;13.55;;;11.00;99.90;;;;;;4838469;29;20098;-66
2022/10/04 06:25:08;;;;;;;29.92;14.55;;;11.00;99.90;;;;;;4835254;29;20592;-65
2022/10/04 06:27:36;;;;;;;26.13;14.32;;;11.00;99.90;;;;;;4830537;29;20050;-65
2022/10/04 06:30:05;;;;;;;26.92;14.27;;;11.00;99.90;;;;;;4836275;29;20065;-65
2022/10/04 06:33:06;;;;;;;27.50;13.55;;;11.00;99.90;;;;;;4838155;29;20042;-66
2022/10/04 06:35:41;;;;;;;26.42;13.13;;;11.00;99.90;;;;;;4836705;29;20501;-66
2022/10/04 06:38:19;;;;;;;28.77;13.52;;;11.10;99.90;;;;;;4836609;29;20065;-67
2022/10/04 06:40:56;;;;;;;27.83;13.20;;;11.10;99.90;;;;;;4809054;29;20042;-67
2022/10/04 06:43:39;;;;;;;26.08;12.90;;;11.10;99.90;;;;;;4830837;29;20821;-65
2022/10/04 06:46:16;;;;;;;22.67;12.45;;;11.20;99.90;;;;;;4812177;29;20531;-65
2022/10/04 06:49:06;;;;;;;23.48;12.38;;;11.20;99.90;;;;;;4819351;29;20065;-65
2022/10/04 06:52:16;;;;;;;23.70;12.15;;;11.20;99.90;;;;;;4835160;29;20509;-66
2022/10/04 06:55:03;;;;;;;28.48;13.75;;;11.40;99.90;;;;;;4750389;30;20569;-65
2022/10/04 06:57:31;;;;;;;21.60;12.38;;;11.40;99.90;;;;;;4746121;30;20083;-67
2022/10/04 07:00:16;;;;;;;26.70;12.85;;;11.50;99.90;;;;;;4799242;29;20467;-67
2022/10/04 07:02:55;;;;;;;29.08;12.48;;;11.60;99.90;;;;;;4794169;29;20046;-66
2022/10/04 07:05:43;;;;;;;;;;;11.70;99.90;;;;;;4829478;29;20042;-68
2022/10/04 07:08:32;;;;;;;23.13;12.30;;;11.70;99.90;;;;;;4817254;29;19924;-65
2022/10/04 07:11:25;;;;;;;22.88;13.10;;;11.80;99.90;;;;;;4811986;29;20077;-67
2022/10/04 07:14:34;;;;;;;22.48;12.23;;;12.00;99.90;;;;;;4818543;29;20485;-67
2022/10/04 07:17:12;;;;;;;23.45;12.15;;;12.00;99.90;;;;;;4781109;29;20194;-66
2022/10/04 07:19:45;;;;;;;21.92;12.40;;;12.10;99.90;;;;;;4830903;29;20062;-67
2022/10/04 07:22:33;;;;;;;23.58;12.02;;;12.20;99.90;;;;;;4828738;29;20046;-67
2022/10/04 07:25:18;;;;;;;21.63;11.57;;;12.30;99.90;;;;;;4836919;29;20053;-67
2022/10/04 07:31:13;;;;;;;21.15;11.18;;;12.40;99.90;;;;;;4814109;29;20070;-67
2022/10/04 07:33:50;;;;;;;21.10;11.70;;;12.40;99.90;;;;;;4808963;29;20038;-65
2022/10/04 07:36:38;;;;;;;21.77;11.70;;;12.40;99.90;;;;;;4835735;29;20120;-67
2022/10/04 07:39:10;;;;;;;21.17;12.07;;;12.50;99.90;;;;;;4835697;29;20042;-67
2022/10/04 07:41:50;;;;;;;25.83;11.30;;;12.70;99.90;;;;;;4842063;29;20057;-66
2022/10/04 07:44:21;;;;;;;19.17;11.05;;;13.00;99.90;;;;;;4830695;29;20054;-67
2022/10/04 07:46:59;;;;;;;18.00;10.48;;;13.20;99.90;;;;;;4835657;29;20056;-67
2022/10/04 07:49:25;;;;;;;21.25;10.85;;;13.40;99.90;;;;;;4819270;29;20590;-66
2022/10/04 07:52:19;;;;;;;19.20;10.70;;;13.50;99.90;;;;;;4841701;29;20054;-66
2022/10/04 07:55:24;;;;;;;22.63;10.70;;;13.50;99.90;;;;;;4831571;29;20038;-67
2022/10/04 07:58:09;;;;;;;20.48;11.25;;;13.50;99.90;;;;;;4821706;29;20497;-66
2022/10/04 08:01:09;;;;;;;16.85;10.13;;;13.50;99.90;;;;;;4833614;29;20053;-67
2022/10/04 08:03:43;;;;;;;20.08;10.45;;;13.50;99.90;;;;;;4821508;29;20045;-66
2022/10/04 08:06:35;;;;;;;16.50;9.82;;;13.40;99.90;;;;;;4833495;29;20054;-66
2022/10/04 08:09:38;;;;;;;20.23;9.93;;;13.40;99.90;;;;;;4801644;29;20552;-65
2022/10/04 08:12:13;;;;;;;22.20;10.38;;;13.30;99.90;;;;;;4834336;29;20062;-67
2022/10/04 08:14:51;;;;;;;21.48;9.60;;;13.20;99.90;;;;;;4839808;29;20061;-67
2022/10/04 08:18:14;;;;;;;19.23;10.20;;;13.20;99.90;;;;;;4840950;29;20058;-67
2022/10/04 08:21:14;;;;;;;22.35;10.10;;;13.20;99.90;;;;;;4812662;29;20066;-67
2022/10/04 08:24:15;;;;;;;22.38;10.15;;;13.10;99.90;;;;;;4809584;29;20511;-67
2022/10/04 08:27:27;;;;;;;24.50;11.38;;;13.10;99.90;;;;;;4822146;29;20099;-67
2022/10/04 08:30:11;;;;;;;18.50;10.00;;;13.30;99.90;;;;;;4836121;29;20051;-66
2022/10/04 08:33:05;;;;;;;26.15;11.18;;;13.40;99.90;;;;;;4828164;29;20045;-67
2022/10/04 08:35:38;;;;;;;24.00;10.32;;;13.70;99.90;;;;;;4840136;29;20109;-67
2022/10/04 08:38:33;;;;;;;19.70;9.70;;;14.00;99.90;;;;;;4818184;29;20053;-65
2022/10/04 08:41:27;;;;;;;18.65;10.02;;;14.30;99.90;;;;;;4821887;29;20043;-67
2022/10/04 08:44:22;;;;;;;16.98;9.25;;;14.60;99.90;;;;;;4806610;29;20050;-67
2022/10/04 08:47:13;;;;;;;18.42;9.38;;;14.80;99.90;;;;;;4823453;29;20054;-68
2022/10/04 08:49:45;;;;;;;18.13;10.00;;;15.10;99.90;;;;;;4831349;29;20053;-67
2022/10/04 08:52:29;;;;;;;16.90;8.63;;;15.20;99.90;;;;;;4839661;29;20093;-67
2022/10/04 08:55:19;;;;;;;15.73;8.73;;;15.40;99.90;;;;;;4827684;29;20524;-67
2022/10/04 08:57:51;;;;;;;18.50;10.30;;;15.50;99.90;;;;;;4840462;29;20484;-66
2022/10/04 09:00:47;;;;;;;19.20;8.93;;;15.70;99.90;;;;;;4834741;29;20097;-67
2022/10/04 09:03:35;;;;;;;17.85;8.75;;;15.80;99.90;;;;;;4809034;29;20062;-67
2022/10/04 09:06:06;;;;;;;17.67;8.93;;;15.90;99.90;;;;;;4838200;29;20045;-66
2022/10/04 09:09:03;;;;;;;17.70;7.45;;;16.00;99.90;;;;;;4835297;29;20050;-67
2022/10/04 09:11:49;;;;;;;18.10;7.35;;;16.10;99.90;;;;;;4842127;29;20309;-67
2022/10/04 09:14:24;;;;;;;14.93;7.43;;;16.20;99.90;;;;;;4844536;29;20102;-67
2022/10/04 09:17:17;;;;;;;13.40;7.13;;;16.30;99.90;;;;;;4842878;29;20046;-66
2022/10/04 09:20:07;;;;;;;19.77;7.28;;;16.40;99.90;;;;;;4836199;29;20046;-66
2022/10/04 09:22:46;;;;;;;14.13;6.85;;;16.40;99.90;;;;;;4826132;29;20046;-67
2022/10/04 09:25:23;;;;;;;14.88;6.82;;;16.60;99.90;;;;;;4843452;29;20050;-67
2022/10/04 09:28:11;;;;;;;12.13;6.55;;;16.70;99.90;;;;;;4842906;29;20125;-69
2022/10/04 09:30:55;;;;;;;14.80;6.10;;;16.90;99.90;;;;;;4838861;29;20046;-67
2022/10/04 09:34:00;;;;;;;17.42;6.97;;;17.00;99.90;;;;;;4843606;29;20046;-68
2022/10/04 09:36:39;;;;;;;13.43;6.07;;;17.20;99.90;;;;;;4814444;29;20119;-66
2022/10/04 09:39:27;;;;;;;14.07;6.13;;;17.40;99.90;;;;;;4836294;29;20049;-68
2022/10/04 09:42:11;;;;;;;9.85;5.60;;;17.50;99.90;;;;;;4841953;29;20050;-67
2022/10/04 09:44:54;;;;;;;13.98;6.22;;;17.70;99.90;;;;;;4827794;29;20057;-66
2022/10/04 09:47:44;;;;;;;11.80;5.45;;;17.90;99.90;;;;;;4823171;29;20106;-67
2022/10/04 09:50:34;;;;;;;11.25;4.90;;;17.90;99.90;;;;;;4837907;29;20038;-67
2022/10/04 09:53:43;;;;;;;12.43;4.97;;;18.10;99.90;;;;;;4829208;29;20406;-68
2022/10/04 09:56:21;;;;;;;8.38;4.57;;;18.20;99.90;;;;;;4816983;29;20058;-67
2022/10/04 09:59:01;;;;;;;15.00;5.87;;;18.30;99.90;;;;;;4836358;29;20199;-66
2022/10/04 10:01:53;;;;;;;9.75;4.38;;;18.40;99.90;;;;;;4834780;29;20191;-67
2022/10/04 10:04:38;;;;;;;11.73;5.40;;;18.60;99.90;;;;;;4834081;29;20049;-68
2022/10/04 10:07:09;;;;;;;10.35;4.55;;;18.80;99.90;;;;;;4839719;29;20058;-67
2022/10/04 10:16:13;;;;;;;;;;;19.40;99.90;;;;;;4828477;29;20062;-68
2022/10/04 10:19:10;;;;;;;11.70;4.88;;;19.70;99.90;;;;;;4823115;29;19971;-68
2022/10/04 10:21:38;;;;;;;11.30;5.20;;;19.90;99.90;;;;;;4838110;29;20046;-68
2022/10/04 10:24:29;;;;;;;9.68;4.20;;;20.20;99.90;;;;;;4823562;29;20046;-67
2022/10/04 10:27:16;;;;;;;7.95;4.07;;;20.50;99.90;;;;;;4841966;29;20089;-68
2022/10/04 10:29:41;;;;;;;11.93;4.05;;;20.70;99.90;;;;;;4841099;29;20647;-67
2022/10/04 10:32:51;;;;;;;10.02;4.38;;;21.20;99.90;;;;;;4822073;29;20050;-67
2022/10/04 10:35:41;;;;;;;11.27;4.07;;;21.40;98.80;;;;;;4830840;29;20120;-68
2022/10/04 10:38:13;;;;;;;8.93;4.10;;;21.50;99.60;;;;;;4835222;29;20060;-67
2022/10/04 10:40:58;;;;;;;8.15;3.75;;;21.60;99.10;;;;;;4841532;29;20068;-67
2022/10/04 10:44:01;;;;;;;9.02;3.97;;;21.70;99.20;;;;;;4831160;29;20057;-68
2022/10/04 10:46:57;;;;;;;10.13;4.20;;;21.90;98.10;;;;;;4833568;29;20060;-66
2022/10/04 10:49:45;;;;;;;11.98;3.70;;;22.20;97.80;;;;;;4836206;29;20556;-68
2022/10/04 10:52:24;;;;;;;6.93;3.55;;;22.50;96.90;;;;;;4833977;29;20137;-67
2022/10/04 10:55:22;;;;;;;9.50;3.65;;;22.60;95.60;;;;;;4842334;29;20058;-68
2022/10/04 10:57:50;;;;;;;7.68;2.70;;;22.80;95.70;;;;;;4822829;29;20050;-67
2022/10/04 11:01:01;;;;;;;8.27;3.17;;;22.80;96.90;;;;;;4807598;29;20053;-68
2022/10/04 11:03:49;;;;;;;5.90;2.70;;;22.90;94.40;;;;;;4833069;29;20099;-67
2022/10/04 11:06:40;;;;;;;;;;;23.20;94.30;;;;;;4813870;29;20078;-68
2022/10/04 11:09:50;;;;;;;11.40;3.25;;;23.20;93.50;;;;;;4838702;29;20398;-68
2022/10/04 11:12:37;;;;;;;7.70;3.05;;;23.10;93.90;;;;;;4837176;29;20636;-67
2022/10/04 11:15:24;;;;;;;9.10;3.37;;;22.90;93.60;;;;;;4840929;29;20405;-68
2022/10/04 11:18:07;;;;;;;8.35;3.15;;;22.90;94.60;;;;;;4833725;29;20057;-67
2022/10/04 11:20:47;;;;;;;9.35;2.97;;;23.10;93.50;;;;;;4824662;29;20085;-68
2022/10/04 11:23:51;;;;;;;4.70;2.90;;;23.40;94.00;;;;;;4834839;29;20050;-66
2022/10/04 11:26:25;;;;;;;9.90;3.53;;;23.50;92.40;;;;;;4841886;29;20700;-68
2022/10/04 11:29:14;;;;;;;12.57;3.30;;;23.60;92.00;;;;;;4835072;29;20045;-67
2022/10/04 11:32:21;;;;;;;9.95;3.60;;;23.60;91.40;;;;;;4808844;29;20104;-68
2022/10/04 11:35:45;;;;;;;7.88;3.20;;;23.70;91.40;;;;;;4830148;29;20057;-68
2022/10/04 11:38:47;;;;;;;8.18;3.10;;;23.60;91.70;;;;;;4786521;29;20054;-68
2022/10/04 11:41:33;;;;;;;7.65;3.20;;;23.60;91.70;;;;;;4824031;29;20093;-68
2022/10/04 11:44:31;;;;;;;9.05;3.17;;;23.80;91.50;;;;;;4840716;29;20560;-67
2022/10/04 11:47:06;;;;;;;6.13;3.05;;;23.90;91.00;;;;;;4829173;29;20058;-68
2022/10/04 11:49:55;;;;;;;7.70;2.88;;;24.20;91.30;;;;;;4837421;29;20061;-68
2022/10/04 11:52:35;;;;;;;9.10;3.10;;;24.30;91.20;;;;;;4839516;29;20058;-68
2022/10/04 11:55:34;;;;;;;13.57;3.60;;;24.40;89.20;;;;;;4840664;29;20552;-68
2022/10/04 11:58:21;;;;;;;14.10;3.85;;;24.20;88.00;;;;;;4826727;29;20042;-68
2022/10/04 12:01:20;;;;;;;7.83;3.10;;;24.20;87.80;;;;;;4834769;29;20421;-67
2022/10/04 12:04:02;;;;;;;10.68;3.58;;;24.40;88.90;;;;;;4827238;29;20655;-67
2022/10/04 12:07:19;;;;;;;6.82;3.10;;;24.40;86.80;;;;;;4841667;29;20061;-66
2022/10/04 12:10:15;;;;;;;7.30;3.05;;;24.10;85.70;;;;;;4826744;29;20077;-66
2022/10/04 12:13:20;;;;;;;7.75;3.38;;;23.90;88.10;;;;;;4823385;29;20078;-68
2022/10/04 12:16:10;;;;;;;7.38;3.22;;;23.90;86.70;;;;;;4839020;29;20042;-68
2022/10/04 12:18:45;;;;;;;8.95;3.33;;;23.80;86.30;;;;;;4819540;29;20489;-67
2022/10/04 12:21:33;;;;;;;7.22;3.25;;;24.00;88.90;;;;;;4822499;29;20046;-67
2022/10/04 12:24:14;;;;;;;;;;;23.90;85.90;;;;;;4824628;29;20053;-67
2022/10/04 12:26:58;;;;;;;9.07;3.47;;;23.60;84.80;;;;;;4837115;29;19931;-67
2022/10/04 12:29:58;;;;;;;8.70;3.58;;;23.30;87.00;;;;;;4835546;29;20590;-67
2022/10/04 12:32:49;;;;;;;10.70;3.92;;;22.80;88.10;;;;;;4835052;29;20548;-67
2022/10/04 12:35:47;;;;;;;7.95;3.45;;;22.10;89.10;;;;;;4834276;29;20095;-70
2022/10/04 12:38:31;;;;;;;8.25;3.22;;;21.40;90.90;;;;;;4836024;29;20098;-66
2022/10/04 12:41:15;;;;;;;8.05;3.70;;;21.00;91.40;;;;;;4833607;29;20057;-67
2022/10/04 12:44:18;;;;;;;9.65;3.90;;;20.80;92.30;;;;;;4836989;29;20532;-68
2022/10/04 12:46:57;;;;;;;8.68;3.90;;;20.10;93.00;;;;;;4839839;29;20092;-68
2022/10/04 12:50:00;;;;;;;9.50;4.18;;;19.70;93.80;;;;;;4828841;29;20520;-68
2022/10/04 12:52:31;;;;;;;8.82;3.95;;;19.50;94.10;;;;;;4830383;29;20138;-68
2022/10/04 12:55:00;;;;;;;11.32;3.85;;;19.20;94.90;;;;;;4824139;29;20038;-67
2022/10/04 12:57:56;;;;;;;7.30;3.67;;;19.10;95.10;;;;;;4810141;29;20049;-68
2022/10/04 13:00:23;;;;;;;9.43;3.90;;;19.00;96.00;;;;;;4832621;29;20045;-70
2022/10/04 13:03:01;;;;;;;10.40;4.47;;;18.80;96.10;;;;;;4826189;29;20061;-68
2022/10/04 13:05:30;;;;;;;9.23;4.57;;;18.80;96.90;;;;;;4840908;29;20378;-68
2022/10/04 13:08:07;;;;;;;10.88;4.00;;;18.60;97.30;;;;;;4840477;29;20864;-70
2022/10/04 13:10:44;;;;;;;10.48;4.50;;;18.60;97.80;;;;;;4842622;29;20065;-68
2022/10/04 13:13:47;;;;;;;11.27;4.97;;;18.50;98.50;;;;;;4840857;29;20053;-69
2022/10/04 13:16:41;;;;;;;12.68;4.65;;;18.50;98.50;;;;;;4843863;29;20114;-67
2022/10/04 13:19:28;;;;;;;10.20;4.72;;;18.40;99.00;;;;;;4824766;29;20050;-68
2022/10/04 13:22:25;;;;;;;10.55;5.05;;;18.30;99.60;;;;;;4841796;29;20038;-69
2022/10/04 13:25:27;;;;;;;13.93;4.80;;;18.30;99.80;;;;;;4831287;29;20050;-67
2022/10/04 13:28:36;;;;;;;11.00;5.30;;;18.30;99.90;;;;;;4837733;29;20399;-68
2022/10/04 13:31:20;;;;;;;11.40;5.63;;;18.30;99.90;;;;;;4831780;29;20054;-68
2022/10/04 13:34:05;;;;;;;12.05;5.88;;;18.20;99.90;;;;;;4833578;29;20051;-68
2022/10/04 13:36:55;;;;;;;10.95;5.45;;;18.10;99.90;;;;;;4824997;29;20054;-68
2022/10/04 13:39:52;;;;;;;9.40;5.50;;;18.00;99.90;;;;;;4835276;29;20046;-67
2022/10/04 13:42:20;;;;;;;9.80;5.47;;;18.00;99.90;;;;;;4839305;29;20054;-68
2022/10/04 13:45:04;;;;;;;12.10;5.97;;;18.00;99.90;;;;;;4840856;29;20157;-67
2022/10/04 13:47:50;;;;;;;11.93;5.65;;;17.90;99.90;;;;;;4824863;29;20061;-67
2022/10/04 13:50:53;;;;;;;11.55;5.22;;;17.90;99.90;;;;;;4821318;29;20057;-68
2022/10/04 13:57:04;;;;;;;10.90;5.72;;;17.80;99.90;;;;;;4826388;29;20513;-69
2022/10/04 13:59:32;;;;;;;13.00;5.63;;;17.80;99.90;;;;;;4837101;29;20500;-65
2022/10/04 14:02:27;;;;;;;12.77;6.07;;;17.80;99.90;;;;;;4840546;29;20052;-69
2022/10/04 14:05:26;;;;;;;13.57;5.30;;;17.80;99.90;;;;;;4840261;29;20524;-69
2022/10/04 14:08:30;;;;;;;11.00;4.93;;;17.70;99.90;;;;;;4829087;29;20095;-69
2022/10/04 14:11:32;;;;;;;11.77;4.85;;;17.70;99.90;;;;;;4827345;29;20394;-68
2022/10/04 14:14:13;;;;;;;9.95;4.70;;;17.70;99.90;;;;;;4830090;29;20042;-68